sensor_id;sensor_type;location;lat;lon;timestamp;P1;durP1;ratioP1;P2;durP2;ratioP2
53867;SDS011;41577;47.470;19.080;2023-09-30T00:00:02;11.18;;;7.32;;
53867;SDS011;41577;47.470;19.080;2023-09-30T00:00:21;12.05;;;8.05;;
53867;SDS011;41577;47.470;19.080;2023-09-30T00:00:33;13.77;;;8.07;;
53867;SDS011;41577;47.470;19.080;2023-09-30T00:00:46;14.77;;;8.18;;
53867;SDS011;41577;47.470;19.080;2023-09-30T00:00:58;13.32;;;7.65;;
53867;SDS011;41577;47.470;19.080;2023-09-30T00:01:11;14.23;;;7.60;;
53867;SDS011;41577;47.470;19.080;2023-09-30T00:01:23;13.68;;;7.50;;
53867;SDS011;41577;47.470;19.080;2023-09-30T00:01:35;17.13;;;7.97;;
53867;SDS011;41577;47.470;19.080;2023-09-30T00:01:48;17.27;;;7.72;;
53867;SDS011;41577;47.470;19.080;2023-09-30T00:02:00;13.65;;;7.70;;
53867;SDS011;41577;47.470;19.080;2023-09-30T00:02:14;13.73;;;7.57;;
53867;SDS011;41577;47.470;19.080;2023-09-30T00:02:26;12.68;;;7.18;;
53867;SDS011;41577;47.470;19.080;2023-09-30T00:02:38;11.68;;;7.07;;
53867;SDS011;41577;47.470;19.080;2023-09-30T00:02:51;11.18;;;7.78;;
53867;SDS011;41577;47.470;19.080;2023-09-30T00:03:08;15.07;;;8.57;;
53867;SDS011;41577;47.470;19.080;2023-09-30T00:03:30;13.63;;;8.10;;
53867;SDS011;41577;47.470;19.080;2023-09-30T00:03:42;13.07;;;7.93;;
53867;SDS011;41577;47.470;19.080;2023-09-30T00:03:55;12.90;;;8.05;;
53867;SDS011;41577;47.470;19.080;2023-09-30T00:04:08;13.38;;;8.20;;
53867;SDS011;41577;47.470;19.080;2023-09-30T00:04:21;14.98;;;7.93;;
53867;SDS011;41577;47.470;19.080;2023-09-30T00:04:33;15.85;;;8.00;;
53867;SDS011;41577;47.470;19.080;2023-09-30T00:04:51;17.23;;;7.93;;
53867;SDS011;41577;47.470;19.080;2023-09-30T00:05:19;25.13;;;8.35;;
53867;SDS011;41577;47.470;19.080;2023-09-30T00:05:31;23.85;;;8.75;;
53867;SDS011;41577;47.470;19.080;2023-09-30T00:05:43;17.00;;;8.25;;
53867;SDS011;41577;47.470;19.080;2023-09-30T00:05:55;12.70;;;7.87;;
53867;SDS011;41577;47.470;19.080;2023-09-30T00:06:07;14.45;;;7.95;;
53867;SDS011;41577;47.470;19.080;2023-09-30T00:06:18;12.73;;;7.88;;
53867;SDS011;41577;47.470;19.080;2023-09-30T00:06:30;12.30;;;8.00;;
53867;SDS011;41577;47.470;19.080;2023-09-30T00:06:42;12.82;;;8.05;;
53867;SDS011;41577;47.470;19.080;2023-09-30T00:06:54;12.38;;;8.18;;
53867;SDS011;41577;47.470;19.080;2023-09-30T00:07:06;12.18;;;7.65;;
53867;SDS011;41577;47.470;19.080;2023-09-30T00:07:18;12.95;;;7.57;;
53867;SDS011;41577;47.470;19.080;2023-09-30T00:07:30;13.95;;;7.75;;
53867;SDS011;41577;47.470;19.080;2023-09-30T00:07:42;13.38;;;8.00;;
53867;SDS011;41577;47.470;19.080;2023-09-30T00:07:54;11.43;;;8.07;;
53867;SDS011;41577;47.470;19.080;2023-09-30T00:08:05;15.73;;;8.23;;
53867;SDS011;41577;47.470;19.080;2023-09-30T00:08:17;18.65;;;8.20;;
53867;SDS011;41577;47.470;19.080;2023-09-30T00:08:29;17.63;;;7.95;;
53867;SDS011;41577;47.470;19.080;2023-09-30T00:08:41;12.70;;;7.65;;
53867;SDS011;41577;47.470;19.080;2023-09-30T00:08:53;15.02;;;7.80;;
53867;SDS011;41577;47.470;19.080;2023-09-30T00:09:04;17.90;;;7.80;;
53867;SDS011;41577;47.470;19.080;2023-09-30T00:09:16;18.45;;;8.32;;
53867;SDS011;41577;47.470;19.080;2023-09-30T00:09:28;19.10;;;8.57;;
53867;SDS011;41577;47.470;19.080;2023-09-30T00:09:40;18.83;;;8.70;;
53867;SDS011;41577;47.470;19.080;2023-09-30T00:09:52;14.13;;;7.85;;
53867;SDS011;41577;47.470;19.080;2023-09-30T00:10:04;14.35;;;7.60;;
53867;SDS011;41577;47.470;19.080;2023-09-30T00:10:16;15.55;;;7.55;;
53867;SDS011;41577;47.470;19.080;2023-09-30T00:10:28;15.93;;;7.47;;
53867;SDS011;41577;47.470;19.080;2023-09-30T00:10:40;13.68;;;7.45;;
53867;SDS011;41577;47.470;19.080;2023-09-30T00:10:52;20.13;;;8.07;;
53867;SDS011;41577;47.470;19.080;2023-09-30T00:11:04;21.35;;;8.50;;
53867;SDS011;41577;47.470;19.080;2023-09-30T00:11:16;19.83;;;8.52;;
53867;SDS011;41577;47.470;19.080;2023-09-30T00:11:28;15.43;;;7.97;;
53867;SDS011;41577;47.470;19.080;2023-09-30T00:11:40;12.30;;;7.18;;
53867;SDS011;41577;47.470;19.080;2023-09-30T00:11:52;11.60;;;7.10;;
53867;SDS011;41577;47.470;19.080;2023-09-30T00:12:04;15.10;;;7.72;;
53867;SDS011;41577;47.470;19.080;2023-09-30T00:12:16;14.05;;;7.80;;
53867;SDS011;41577;47.470;19.080;2023-09-30T00:12:28;13.32;;;7.85;;
53867;SDS011;41577;47.470;19.080;2023-09-30T00:12:39;11.73;;;7.53;;
53867;SDS011;41577;47.470;19.080;2023-09-30T00:12:51;11.60;;;7.55;;
53867;SDS011;41577;47.470;19.080;2023-09-30T00:13:03;11.25;;;7.30;;
53867;SDS011;41577;47.470;19.080;2023-09-30T00:13:15;10.57;;;6.85;;
53867;SDS011;41577;47.470;19.080;2023-09-30T00:13:27;11.57;;;6.95;;
53867;SDS011;41577;47.470;19.080;2023-09-30T00:13:39;11.07;;;6.95;;
53867;SDS011;41577;47.470;19.080;2023-09-30T00:13:50;12.13;;;7.20;;
53867;SDS011;41577;47.470;19.080;2023-09-30T00:14:02;11.52;;;7.53;;
53867;SDS011;41577;47.470;19.080;2023-09-30T00:14:15;12.48;;;7.80;;
53867;SDS011;41577;47.470;19.080;2023-09-30T00:14:26;13.40;;;7.60;;
53867;SDS011;41577;47.470;19.080;2023-09-30T00:14:38;12.52;;;7.43;;
53867;SDS011;41577;47.470;19.080;2023-09-30T00:14:50;13.43;;;7.68;;
53867;SDS011;41577;47.470;19.080;2023-09-30T00:15:02;12.75;;;7.65;;
53867;SDS011;41577;47.470;19.080;2023-09-30T00:15:14;12.73;;;7.53;;
53867;SDS011;41577;47.470;19.080;2023-09-30T00:15:26;11.85;;;7.65;;
53867;SDS011;41577;47.470;19.080;2023-09-30T00:15:38;11.98;;;7.60;;
53867;SDS011;41577;47.470;19.080;2023-09-30T00:15:50;13.70;;;7.60;;
53867;SDS011;41577;47.470;19.080;2023-09-30T00:16:02;12.43;;;7.20;;
53867;SDS011;41577;47.470;19.080;2023-09-30T00:16:14;11.85;;;7.05;;
53867;SDS011;41577;47.470;19.080;2023-09-30T00:16:25;12.75;;;7.00;;
53867;SDS011;41577;47.470;19.080;2023-09-30T00:16:37;14.98;;;7.40;;
53867;SDS011;41577;47.470;19.080;2023-09-30T00:16:50;21.77;;;7.68;;
53867;SDS011;41577;47.470;19.080;2023-09-30T00:17:02;20.75;;;8.52;;
53867;SDS011;41577;47.470;19.080;2023-09-30T00:17:13;20.38;;;8.60;;
53867;SDS011;41577;47.470;19.080;2023-09-30T00:17:25;17.25;;;8.63;;
53867;SDS011;41577;47.470;19.080;2023-09-30T00:17:37;15.57;;;7.72;;
53867;SDS011;41577;47.470;19.080;2023-09-30T00:17:49;14.75;;;7.72;;
53867;SDS011;41577;47.470;19.080;2023-09-30T00:18:02;13.75;;;7.90;;
53867;SDS011;41577;47.470;19.080;2023-09-30T00:18:14;15.52;;;8.10;;
53867;SDS011;41577;47.470;19.080;2023-09-30T00:18:26;15.65;;;7.90;;
53867;SDS011;41577;47.470;19.080;2023-09-30T00:18:38;13.80;;;7.75;;
53867;SDS011;41577;47.470;19.080;2023-09-30T00:18:50;13.52;;;7.80;;
53867;SDS011;41577;47.470;19.080;2023-09-30T00:19:02;15.23;;;7.72;;
53867;SDS011;41577;47.470;19.080;2023-09-30T00:19:13;13.82;;;7.53;;
53867;SDS011;41577;47.470;19.080;2023-09-30T00:19:25;13.15;;;7.22;;
53867;SDS011;41577;47.470;19.080;2023-09-30T00:19:37;11.52;;;7.13;;
53867;SDS011;41577;47.470;19.080;2023-09-30T00:19:50;12.98;;;7.13;;
53867;SDS011;41577;47.470;19.080;2023-09-30T00:20:02;12.43;;;7.20;;
53867;SDS011;41577;47.470;19.080;2023-09-30T00:20:15;13.90;;;7.57;;
53867;SDS011;41577;47.470;19.080;2023-09-30T00:20:27;13.77;;;7.72;;
53867;SDS011;41577;47.470;19.080;2023-09-30T00:20:38;13.00;;;7.70;;
53867;SDS011;41577;47.470;19.080;2023-09-30T00:20:50;11.95;;;7.15;;
53867;SDS011;41577;47.470;19.080;2023-09-30T00:21:02;11.82;;;7.10;;
53867;SDS011;41577;47.470;19.080;2023-09-30T00:21:16;10.70;;;7.28;;
53867;SDS011;41577;47.470;19.080;2023-09-30T00:21:28;12.80;;;7.57;;
53867;SDS011;41577;47.470;19.080;2023-09-30T00:21:40;12.23;;;7.38;;
53867;SDS011;41577;47.470;19.080;2023-09-30T00:21:52;13.38;;;7.60;;
53867;SDS011;41577;47.470;19.080;2023-09-30T00:22:04;12.18;;;7.55;;
53867;SDS011;41577;47.470;19.080;2023-09-30T00:22:15;11.30;;;7.32;;
53867;SDS011;41577;47.470;19.080;2023-09-30T00:22:27;12.27;;;7.50;;
53867;SDS011;41577;47.470;19.080;2023-09-30T00:22:39;12.85;;;7.90;;
53867;SDS011;41577;47.470;19.080;2023-09-30T00:22:51;12.40;;;7.85;;
53867;SDS011;41577;47.470;19.080;2023-09-30T00:23:03;11.80;;;7.78;;
53867;SDS011;41577;47.470;19.080;2023-09-30T00:23:15;10.45;;;7.38;;
53867;SDS011;41577;47.470;19.080;2023-09-30T00:23:27;13.30;;;7.20;;
53867;SDS011;41577;47.470;19.080;2023-09-30T00:23:38;13.88;;;7.28;;
53867;SDS011;41577;47.470;19.080;2023-09-30T00:23:50;13.20;;;7.60;;
53867;SDS011;41577;47.470;19.080;2023-09-30T00:24:02;11.05;;;7.30;;
53867;SDS011;41577;47.470;19.080;2023-09-30T00:24:14;12.52;;;7.68;;
53867;SDS011;41577;47.470;19.080;2023-09-30T00:24:26;12.60;;;7.93;;
53867;SDS011;41577;47.470;19.080;2023-09-30T00:24:38;12.77;;;7.82;;
53867;SDS011;41577;47.470;19.080;2023-09-30T00:24:50;13.13;;;7.22;;
53867;SDS011;41577;47.470;19.080;2023-09-30T00:25:02;12.85;;;6.85;;
53867;SDS011;41577;47.470;19.080;2023-09-30T00:25:15;12.20;;;7.55;;
53867;SDS011;41577;47.470;19.080;2023-09-30T00:25:27;15.75;;;7.85;;
53867;SDS011;41577;47.470;19.080;2023-09-30T00:25:39;17.45;;;7.93;;
53867;SDS011;41577;47.470;19.080;2023-09-30T00:25:50;17.38;;;7.78;;
53867;SDS011;41577;47.470;19.080;2023-09-30T00:26:02;19.10;;;7.78;;
53867;SDS011;41577;47.470;19.080;2023-09-30T00:26:14;14.25;;;7.78;;
53867;SDS011;41577;47.470;19.080;2023-09-30T00:26:30;12.93;;;7.68;;
53867;SDS011;41577;47.470;19.080;2023-09-30T00:26:42;13.82;;;7.50;;
53867;SDS011;41577;47.470;19.080;2023-09-30T00:26:53;16.98;;;7.97;;
53867;SDS011;41577;47.470;19.080;2023-09-30T00:27:05;14.70;;;8.00;;
53867;SDS011;41577;47.470;19.080;2023-09-30T00:27:18;15.30;;;8.10;;
53867;SDS011;41577;47.470;19.080;2023-09-30T00:27:30;13.90;;;8.00;;
53867;SDS011;41577;47.470;19.080;2023-09-30T00:27:42;16.33;;;8.45;;
53867;SDS011;41577;47.470;19.080;2023-09-30T00:27:53;14.90;;;8.07;;
53867;SDS011;41577;47.470;19.080;2023-09-30T00:28:05;14.52;;;7.75;;
53867;SDS011;41577;47.470;19.080;2023-09-30T00:28:17;16.95;;;7.80;;
53867;SDS011;41577;47.470;19.080;2023-09-30T00:28:29;16.23;;;7.95;;
53867;SDS011;41577;47.470;19.080;2023-09-30T00:28:41;16.70;;;7.90;;
53867;SDS011;41577;47.470;19.080;2023-09-30T00:28:53;16.73;;;7.72;;
53867;SDS011;41577;47.470;19.080;2023-09-30T00:29:06;14.82;;;7.30;;
53867;SDS011;41577;47.470;19.080;2023-09-30T00:29:17;26.23;;;8.05;;
53867;SDS011;41577;47.470;19.080;2023-09-30T00:29:29;22.95;;;7.97;;
53867;SDS011;41577;47.470;19.080;2023-09-30T00:29:41;14.18;;;8.07;;
53867;SDS011;41577;47.470;19.080;2023-09-30T00:29:53;19.20;;;7.70;;
53867;SDS011;41577;47.470;19.080;2023-09-30T00:30:05;21.88;;;8.40;;
53867;SDS011;41577;47.470;19.080;2023-09-30T00:30:18;22.77;;;7.97;;
53867;SDS011;41577;47.470;19.080;2023-09-30T00:30:30;21.25;;;7.93;;
53867;SDS011;41577;47.470;19.080;2023-09-30T00:30:45;13.73;;;8.77;;
53867;SDS011;41577;47.470;19.080;2023-09-30T00:30:56;16.20;;;8.48;;
53867;SDS011;41577;47.470;19.080;2023-09-30T00:31:09;18.08;;;7.88;;
53867;SDS011;41577;47.470;19.080;2023-09-30T00:31:21;15.20;;;7.55;;
53867;SDS011;41577;47.470;19.080;2023-09-30T00:31:33;13.73;;;7.43;;
53867;SDS011;41577;47.470;19.080;2023-09-30T00:31:44;12.77;;;7.60;;
53867;SDS011;41577;47.470;19.080;2023-09-30T00:31:56;12.93;;;7.40;;
53867;SDS011;41577;47.470;19.080;2023-09-30T00:32:08;11.57;;;7.85;;
53867;SDS011;41577;47.470;19.080;2023-09-30T00:32:21;13.27;;;7.68;;
53867;SDS011;41577;47.470;19.080;2023-09-30T00:32:32;13.55;;;7.72;;
53867;SDS011;41577;47.470;19.080;2023-09-30T00:32:44;12.75;;;7.60;;
53867;SDS011;41577;47.470;19.080;2023-09-30T00:32:56;10.90;;;7.70;;
53867;SDS011;41577;47.470;19.080;2023-09-30T00:33:08;11.70;;;7.25;;
53867;SDS011;41577;47.470;19.080;2023-09-30T00:33:20;11.77;;;7.05;;
53867;SDS011;41577;47.470;19.080;2023-09-30T00:33:32;14.00;;;7.43;;
53867;SDS011;41577;47.470;19.080;2023-09-30T00:33:45;14.23;;;7.85;;
53867;SDS011;41577;47.470;19.080;2023-09-30T00:33:56;13.98;;;7.47;;
53867;SDS011;41577;47.470;19.080;2023-09-30T00:34:08;15.57;;;7.70;;
53867;SDS011;41577;47.470;19.080;2023-09-30T00:34:20;13.05;;;7.50;;
53867;SDS011;41577;47.470;19.080;2023-09-30T00:34:32;12.30;;;7.57;;
53867;SDS011;41577;47.470;19.080;2023-09-30T00:34:45;14.70;;;7.45;;
53867;SDS011;41577;47.470;19.080;2023-09-30T00:34:58;12.98;;;7.53;;
53867;SDS011;41577;47.470;19.080;2023-09-30T00:35:10;9.48;;;7.60;;
53867;SDS011;41577;47.470;19.080;2023-09-30T00:35:21;10.18;;;7.55;;
53867;SDS011;41577;47.470;19.080;2023-09-30T00:35:34;10.18;;;7.53;;
53867;SDS011;41577;47.470;19.080;2023-09-30T00:35:46;11.45;;;7.35;;
53867;SDS011;41577;47.470;19.080;2023-09-30T00:35:58;13.77;;;7.65;;
53867;SDS011;41577;47.470;19.080;2023-09-30T00:36:10;14.52;;;7.78;;
53867;SDS011;41577;47.470;19.080;2023-09-30T00:36:23;12.80;;;7.88;;
53867;SDS011;41577;47.470;19.080;2023-09-30T00:36:35;13.70;;;7.78;;
53867;SDS011;41577;47.470;19.080;2023-09-30T00:36:46;13.65;;;7.63;;
53867;SDS011;41577;47.470;19.080;2023-09-30T00:36:58;16.23;;;7.90;;
53867;SDS011;41577;47.470;19.080;2023-09-30T00:37:10;16.42;;;8.00;;
53867;SDS011;41577;47.470;19.080;2023-09-30T00:37:22;12.52;;;7.57;;
53867;SDS011;41577;47.470;19.080;2023-09-30T00:37:34;15.00;;;7.68;;
53867;SDS011;41577;47.470;19.080;2023-09-30T00:37:46;17.98;;;8.27;;
53867;SDS011;41577;47.470;19.080;2023-09-30T00:37:58;17.38;;;8.25;;
53867;SDS011;41577;47.470;19.080;2023-09-30T00:38:10;14.95;;;8.20;;
53867;SDS011;41577;47.470;19.080;2023-09-30T00:38:22;14.50;;;8.35;;
53867;SDS011;41577;47.470;19.080;2023-09-30T00:38:34;16.17;;;8.15;;
53867;SDS011;41577;47.470;19.080;2023-09-30T00:38:45;16.00;;;7.65;;
53867;SDS011;41577;47.470;19.080;2023-09-30T00:38:57;15.02;;;6.97;;
53867;SDS011;41577;47.470;19.080;2023-09-30T00:39:09;12.57;;;7.18;;
53867;SDS011;41577;47.470;19.080;2023-09-30T00:39:21;12.32;;;7.40;;
53867;SDS011;41577;47.470;19.080;2023-09-30T00:39:33;14.30;;;7.93;;
53867;SDS011;41577;47.470;19.080;2023-09-30T00:39:45;15.30;;;8.05;;
53867;SDS011;41577;47.470;19.080;2023-09-30T00:39:57;16.92;;;8.10;;
53867;SDS011;41577;47.470;19.080;2023-09-30T00:40:09;14.10;;;8.00;;
53867;SDS011;41577;47.470;19.080;2023-09-30T00:40:22;14.57;;;7.90;;
53867;SDS011;41577;47.470;19.080;2023-09-30T00:40:33;13.40;;;7.90;;
53867;SDS011;41577;47.470;19.080;2023-09-30T00:40:48;13.93;;;8.23;;
53867;SDS011;41577;47.470;19.080;2023-09-30T00:41:00;14.07;;;8.55;;
53867;SDS011;41577;47.470;19.080;2023-09-30T00:41:12;12.60;;;8.38;;
53867;SDS011;41577;47.470;19.080;2023-09-30T00:41:24;16.33;;;8.32;;
53867;SDS011;41577;47.470;19.080;2023-09-30T00:41:38;15.43;;;7.90;;
53867;SDS011;41577;47.470;19.080;2023-09-30T00:41:51;11.27;;;7.75;;
53867;SDS011;41577;47.470;19.080;2023-09-30T00:42:03;11.50;;;7.90;;
53867;SDS011;41577;47.470;19.080;2023-09-30T00:42:15;11.70;;;7.75;;
53867;SDS011;41577;47.470;19.080;2023-09-30T00:42:27;11.07;;;7.43;;
53867;SDS011;41577;47.470;19.080;2023-09-30T00:42:39;11.40;;;7.70;;
53867;SDS011;41577;47.470;19.080;2023-09-30T00:42:52;14.02;;;7.82;;
53867;SDS011;41577;47.470;19.080;2023-09-30T00:43:04;17.80;;;8.35;;
53867;SDS011;41577;47.470;19.080;2023-09-30T00:43:20;17.80;;;8.32;;
53867;SDS011;41577;47.470;19.080;2023-09-30T00:43:31;15.85;;;8.27;;
53867;SDS011;41577;47.470;19.080;2023-09-30T00:43:45;14.88;;;7.93;;
53867;SDS011;41577;47.470;19.080;2023-09-30T00:43:57;16.00;;;8.10;;
53867;SDS011;41577;47.470;19.080;2023-09-30T00:44:09;13.35;;;8.20;;
53867;SDS011;41577;47.470;19.080;2023-09-30T00:44:21;12.93;;;7.80;;
53867;SDS011;41577;47.470;19.080;2023-09-30T00:44:33;14.45;;;7.45;;
53867;SDS011;41577;47.470;19.080;2023-09-30T00:44:44;13.57;;;7.47;;
53867;SDS011;41577;47.470;19.080;2023-09-30T00:44:56;13.63;;;7.78;;
53867;SDS011;41577;47.470;19.080;2023-09-30T00:45:08;12.82;;;7.85;;
53867;SDS011;41577;47.470;19.080;2023-09-30T00:45:23;11.82;;;7.45;;
53867;SDS011;41577;47.470;19.080;2023-09-30T00:45:35;11.32;;;7.63;;
53867;SDS011;41577;47.470;19.080;2023-09-30T00:45:48;13.90;;;8.07;;
53867;SDS011;41577;47.470;19.080;2023-09-30T00:46:06;13.93;;;8.13;;
53867;SDS011;41577;47.470;19.080;2023-09-30T00:46:29;11.65;;;7.85;;
53867;SDS011;41577;47.470;19.080;2023-09-30T00:46:42;10.60;;;7.47;;
53867;SDS011;41577;47.470;19.080;2023-09-30T00:46:54;13.32;;;8.07;;
53867;SDS011;41577;47.470;19.080;2023-09-30T00:47:06;14.73;;;8.10;;
53867;SDS011;41577;47.470;19.080;2023-09-30T00:47:18;15.70;;;8.32;;
53867;SDS011;41577;47.470;19.080;2023-09-30T00:47:30;15.43;;;8.40;;
53867;SDS011;41577;47.470;19.080;2023-09-30T00:47:42;14.88;;;8.60;;
53867;SDS011;41577;47.470;19.080;2023-09-30T00:47:55;14.07;;;8.45;;
53867;SDS011;41577;47.470;19.080;2023-09-30T00:48:07;15.55;;;8.82;;
53867;SDS011;41577;47.470;19.080;2023-09-30T00:48:19;16.48;;;8.27;;
53867;SDS011;41577;47.470;19.080;2023-09-30T00:48:32;14.68;;;8.15;;
53867;SDS011;41577;47.470;19.080;2023-09-30T00:48:44;12.30;;;8.27;;
53867;SDS011;41577;47.470;19.080;2023-09-30T00:48:57;11.55;;;8.07;;
53867;SDS011;41577;47.470;19.080;2023-09-30T00:49:12;9.82;;;7.18;;
53867;SDS011;41577;47.470;19.080;2023-09-30T00:49:25;11.10;;;7.50;;
53867;SDS011;41577;47.470;19.080;2023-09-30T00:49:37;12.90;;;8.35;;
53867;SDS011;41577;47.470;19.080;2023-09-30T00:49:50;13.68;;;8.55;;
53867;SDS011;41577;47.470;19.080;2023-09-30T00:50:03;13.77;;;8.13;;
53867;SDS011;41577;47.470;19.080;2023-09-30T00:50:16;12.63;;;8.05;;
53867;SDS011;41577;47.470;19.080;2023-09-30T00:50:30;9.88;;;8.00;;
53867;SDS011;41577;47.470;19.080;2023-09-30T00:50:43;11.48;;;8.10;;
53867;SDS011;41577;47.470;19.080;2023-09-30T00:50:55;14.77;;;8.40;;
53867;SDS011;41577;47.470;19.080;2023-09-30T00:51:07;18.17;;;8.45;;
53867;SDS011;41577;47.470;19.080;2023-09-30T00:51:19;15.93;;;8.32;;
53867;SDS011;41577;47.470;19.080;2023-09-30T00:51:31;13.25;;;8.30;;
53867;SDS011;41577;47.470;19.080;2023-09-30T00:51:44;12.30;;;8.00;;
53867;SDS011;41577;47.470;19.080;2023-09-30T00:51:59;11.30;;;7.88;;
53867;SDS011;41577;47.470;19.080;2023-09-30T00:52:11;11.82;;;8.18;;
53867;SDS011;41577;47.470;19.080;2023-09-30T00:52:23;12.73;;;7.78;;
53867;SDS011;41577;47.470;19.080;2023-09-30T00:52:36;11.25;;;7.30;;
53867;SDS011;41577;47.470;19.080;2023-09-30T00:52:49;11.30;;;7.43;;
53867;SDS011;41577;47.470;19.080;2023-09-30T00:53:01;11.13;;;7.35;;
53867;SDS011;41577;47.470;19.080;2023-09-30T00:53:13;14.55;;;7.45;;
53867;SDS011;41577;47.470;19.080;2023-09-30T00:53:25;14.05;;;7.35;;
53867;SDS011;41577;47.470;19.080;2023-09-30T00:53:37;11.98;;;7.20;;
53867;SDS011;41577;47.470;19.080;2023-09-30T00:53:49;13.73;;;7.38;;
53867;SDS011;41577;47.470;19.080;2023-09-30T00:54:03;14.90;;;8.02;;
53867;SDS011;41577;47.470;19.080;2023-09-30T00:54:16;13.30;;;8.27;;
53867;SDS011;41577;47.470;19.080;2023-09-30T00:54:28;15.30;;;8.30;;
53867;SDS011;41577;47.470;19.080;2023-09-30T00:54:41;16.13;;;8.05;;
53867;SDS011;41577;47.470;19.080;2023-09-30T00:54:53;14.48;;;8.05;;
53867;SDS011;41577;47.470;19.080;2023-09-30T00:55:05;10.15;;;7.55;;
53867;SDS011;41577;47.470;19.080;2023-09-30T00:55:19;10.20;;;7.60;;
53867;SDS011;41577;47.470;19.080;2023-09-30T00:55:32;12.35;;;7.78;;
53867;SDS011;41577;47.470;19.080;2023-09-30T00:55:44;13.70;;;8.27;;
53867;SDS011;41577;47.470;19.080;2023-09-30T00:55:56;13.70;;;8.27;;
53867;SDS011;41577;47.470;19.080;2023-09-30T00:56:09;16.05;;;8.07;;
53867;SDS011;41577;47.470;19.080;2023-09-30T00:56:22;19.88;;;8.38;;
53867;SDS011;41577;47.470;19.080;2023-09-30T00:56:38;15.35;;;8.30;;
53867;SDS011;41577;47.470;19.080;2023-09-30T00:56:55;15.55;;;8.43;;
53867;SDS011;41577;47.470;19.080;2023-09-30T00:57:08;15.65;;;7.85;;
53867;SDS011;41577;47.470;19.080;2023-09-30T00:57:20;13.20;;;7.90;;
53867;SDS011;41577;47.470;19.080;2023-09-30T00:57:33;12.45;;;8.35;;
53867;SDS011;41577;47.470;19.080;2023-09-30T00:57:46;14.02;;;8.45;;
53867;SDS011;41577;47.470;19.080;2023-09-30T00:57:57;13.90;;;7.97;;
53867;SDS011;41577;47.470;19.080;2023-09-30T00:58:09;12.18;;;7.65;;
53867;SDS011;41577;47.470;19.080;2023-09-30T00:58:22;10.80;;;7.82;;
53867;SDS011;41577;47.470;19.080;2023-09-30T00:58:34;12.43;;;8.18;;
53867;SDS011;41577;47.470;19.080;2023-09-30T00:58:47;13.55;;;8.05;;
53867;SDS011;41577;47.470;19.080;2023-09-30T00:58:59;12.13;;;7.80;;
53867;SDS011;41577;47.470;19.080;2023-09-30T00:59:12;13.15;;;8.35;;
53867;SDS011;41577;47.470;19.080;2023-09-30T00:59:24;15.93;;;8.05;;
53867;SDS011;41577;47.470;19.080;2023-09-30T00:59:36;14.75;;;7.47;;
53867;SDS011;41577;47.470;19.080;2023-09-30T00:59:49;11.57;;;7.70;;
53867;SDS011;41577;47.470;19.080;2023-09-30T01:00:02;11.45;;;7.90;;
53867;SDS011;41577;47.470;19.080;2023-09-30T01:00:14;14.30;;;8.65;;
53867;SDS011;41577;47.470;19.080;2023-09-30T01:00:28;14.23;;;8.55;;
53867;SDS011;41577;47.470;19.080;2023-09-30T01:00:40;12.15;;;7.95;;
53867;SDS011;41577;47.470;19.080;2023-09-30T01:00:52;11.90;;;7.75;;
53867;SDS011;41577;47.470;19.080;2023-09-30T01:01:04;12.35;;;7.72;;
53867;SDS011;41577;47.470;19.080;2023-09-30T01:01:16;12.20;;;7.70;;
53867;SDS011;41577;47.470;19.080;2023-09-30T01:01:29;12.93;;;7.95;;
53867;SDS011;41577;47.470;19.080;2023-09-30T01:01:41;13.52;;;8.45;;
53867;SDS011;41577;47.470;19.080;2023-09-30T01:01:56;12.55;;;8.32;;
53867;SDS011;41577;47.470;19.080;2023-09-30T01:02:09;14.45;;;8.07;;
53867;SDS011;41577;47.470;19.080;2023-09-30T01:02:21;13.60;;;7.95;;
53867;SDS011;41577;47.470;19.080;2023-09-30T01:02:34;13.55;;;7.90;;
53867;SDS011;41577;47.470;19.080;2023-09-30T01:02:46;12.85;;;7.80;;
53867;SDS011;41577;47.470;19.080;2023-09-30T01:02:58;15.25;;;8.25;;
53867;SDS011;41577;47.470;19.080;2023-09-30T01:03:10;14.38;;;8.25;;
53867;SDS011;41577;47.470;19.080;2023-09-30T01:03:23;15.30;;;8.57;;
53867;SDS011;41577;47.470;19.080;2023-09-30T01:03:35;14.10;;;8.18;;
53867;SDS011;41577;47.470;19.080;2023-09-30T01:03:49;12.82;;;8.02;;
53867;SDS011;41577;47.470;19.080;2023-09-30T01:04:01;12.43;;;8.15;;
53867;SDS011;41577;47.470;19.080;2023-09-30T01:04:15;12.00;;;8.43;;
53867;SDS011;41577;47.470;19.080;2023-09-30T01:04:27;13.35;;;8.13;;
53867;SDS011;41577;47.470;19.080;2023-09-30T01:04:39;13.10;;;7.60;;
53867;SDS011;41577;47.470;19.080;2023-09-30T01:04:52;12.85;;;7.63;;
53867;SDS011;41577;47.470;19.080;2023-09-30T01:05:08;11.80;;;7.38;;
53867;SDS011;41577;47.470;19.080;2023-09-30T01:05:20;13.20;;;7.45;;
53867;SDS011;41577;47.470;19.080;2023-09-30T01:05:32;14.50;;;7.88;;
53867;SDS011;41577;47.470;19.080;2023-09-30T01:05:43;12.95;;;8.45;;
53867;SDS011;41577;47.470;19.080;2023-09-30T01:05:56;14.63;;;8.32;;
53867;SDS011;41577;47.470;19.080;2023-09-30T01:06:08;16.88;;;8.30;;
53867;SDS011;41577;47.470;19.080;2023-09-30T01:06:20;17.23;;;7.78;;
53867;SDS011;41577;47.470;19.080;2023-09-30T01:06:32;18.77;;;8.00;;
53867;SDS011;41577;47.470;19.080;2023-09-30T01:06:44;14.38;;;7.85;;
53867;SDS011;41577;47.470;19.080;2023-09-30T01:06:56;12.23;;;7.68;;
53867;SDS011;41577;47.470;19.080;2023-09-30T01:07:07;13.00;;;7.68;;
53867;SDS011;41577;47.470;19.080;2023-09-30T01:07:19;18.75;;;8.18;;
53867;SDS011;41577;47.470;19.080;2023-09-30T01:07:31;22.90;;;8.35;;
53867;SDS011;41577;47.470;19.080;2023-09-30T01:07:44;21.15;;;8.32;;
53867;SDS011;41577;47.470;19.080;2023-09-30T01:07:56;18.48;;;8.23;;
53867;SDS011;41577;47.470;19.080;2023-09-30T01:08:08;12.88;;;7.93;;
53867;SDS011;41577;47.470;19.080;2023-09-30T01:08:20;12.00;;;7.88;;
53867;SDS011;41577;47.470;19.080;2023-09-30T01:08:32;16.25;;;8.02;;
53867;SDS011;41577;47.470;19.080;2023-09-30T01:08:44;16.98;;;7.82;;
53867;SDS011;41577;47.470;19.080;2023-09-30T01:08:56;17.25;;;7.63;;
53867;SDS011;41577;47.470;19.080;2023-09-30T01:09:08;14.93;;;7.93;;
53867;SDS011;41577;47.470;19.080;2023-09-30T01:09:20;15.95;;;7.75;;
53867;SDS011;41577;47.470;19.080;2023-09-30T01:09:32;15.05;;;7.53;;
53867;SDS011;41577;47.470;19.080;2023-09-30T01:09:44;16.63;;;8.52;;
53867;SDS011;41577;47.470;19.080;2023-09-30T01:09:56;15.88;;;8.63;;
53867;SDS011;41577;47.470;19.080;2023-09-30T01:10:08;14.40;;;8.00;;
53867;SDS011;41577;47.470;19.080;2023-09-30T01:10:21;14.65;;;7.63;;
53867;SDS011;41577;47.470;19.080;2023-09-30T01:10:33;16.80;;;7.60;;
53867;SDS011;41577;47.470;19.080;2023-09-30T01:10:44;17.40;;;7.80;;
53867;SDS011;41577;47.470;19.080;2023-09-30T01:10:57;13.07;;;7.65;;
53867;SDS011;41577;47.470;19.080;2023-09-30T01:11:09;15.00;;;8.25;;
53867;SDS011;41577;47.470;19.080;2023-09-30T01:11:22;17.40;;;8.55;;
53867;SDS011;41577;47.470;19.080;2023-09-30T01:11:34;15.98;;;8.70;;
53867;SDS011;41577;47.470;19.080;2023-09-30T01:11:46;17.80;;;8.15;;
53867;SDS011;41577;47.470;19.080;2023-09-30T01:11:57;18.55;;;8.40;;
53867;SDS011;41577;47.470;19.080;2023-09-30T01:12:09;15.15;;;8.40;;
53867;SDS011;41577;47.470;19.080;2023-09-30T01:12:21;16.50;;;8.27;;
53867;SDS011;41577;47.470;19.080;2023-09-30T01:12:33;17.27;;;7.90;;